createdAt,value
2022-10-06T00:00:10.196Z,96784.72
2022-10-06T00:02:37.493Z,96722.47
2022-10-06T00:05:04.672Z,96788.53
2022-10-06T00:07:31.527Z,96936.28
2022-10-06T00:09:58.411Z,96735.69
2022-10-06T00:12:25.554Z,96800.41
2022-10-06T00:14:52.434Z,96961.63
2022-10-06T00:17:19.414Z,96749.44
2022-10-06T00:19:46.509Z,96739.72
2022-10-06T00:22:13.353Z,96938.19
2022-10-06T00:24:40.305Z,96710.22
2022-10-06T00:27:07.432Z,96720.28
2022-10-06T00:29:34.296Z,96917.53
2022-10-06T00:32:01.411Z,96744.94
2022-10-06T00:34:28.372Z,96915.44
2022-10-06T00:36:55.252Z,96752.63
2022-10-06T00:39:22.392Z,96776.31
2022-10-06T00:41:49.530Z,96868.31
2022-10-06T00:44:16.542Z,96776.59
2022-10-06T00:46:50.432Z,96841.16
2022-10-06T00:49:30.991Z,96704.72
2022-10-06T00:52:05.992Z,96915.31
2022-10-06T00:54:34.540Z,96922.59
2022-10-06T00:57:02.179Z,96893.19
2022-10-06T00:59:29.378Z,96650.84
2022-10-06T01:02:02.675Z,96898.59
2022-10-06T01:04:36.166Z,96791.94
2022-10-06T01:07:04.096Z,96880.19
2022-10-06T01:09:31.760Z,96903.13
2022-10-06T01:12:03.415Z,96742.22
2022-10-06T01:14:30.612Z,96908.19
2022-10-06T01:17:17.198Z,96815.69
2022-10-06T01:19:55.117Z,96860.09
2022-10-06T01:22:29.866Z,96854.88
2022-10-06T01:24:57.662Z,96685.50
2022-10-06T01:27:26.966Z,96861.94
2022-10-06T01:29:56.136Z,96791.28
2022-10-06T01:32:25.591Z,96736.59
2022-10-06T01:34:52.580Z,96877.75
2022-10-06T01:37:19.792Z,96886.31
2022-10-06T01:39:46.770Z,96864.03
2022-10-06T01:42:13.536Z,96653.06
2022-10-06T01:44:40.653Z,96744.16
2022-10-06T01:47:08.510Z,96697.88
2022-10-06T01:49:35.487Z,96684.06
2022-10-06T01:52:03.101Z,96867.03
2022-10-06T01:54:29.932Z,96711.22
2022-10-06T01:56:56.833Z,96868.88
2022-10-06T01:59:24.068Z,96719.50
2022-10-06T02:01:51.884Z,96873.09
2022-10-06T02:04:18.823Z,96868.97
2022-10-06T02:06:45.897Z,96848.22
2022-10-06T02:09:13.550Z,96816.63
2022-10-06T02:11:40.390Z,96810.19
2022-10-06T02:14:07.546Z,96726.84
2022-10-06T02:16:34.408Z,96869.97
2022-10-06T02:19:01.394Z,96703.50
2022-10-06T02:21:28.530Z,96724.91
2022-10-06T02:23:55.325Z,96713.88
2022-10-06T02:26:22.191Z,96876.38
2022-10-06T02:28:49.550Z,96761.75
2022-10-06T02:31:16.979Z,96866.94
2022-10-06T02:33:43.826Z,96710.25
2022-10-06T02:36:13.652Z,96591.34
2022-10-06T02:38:40.636Z,96892.47
2022-10-06T02:41:08.447Z,96879.97
2022-10-06T02:43:35.948Z,96880.97
2022-10-06T02:46:06.048Z,96686.91
2022-10-06T02:48:33.221Z,96882.31
2022-10-06T02:51:03.993Z,96874.03
2022-10-06T02:53:30.930Z,96895.50
2022-10-06T02:56:07.110Z,96863.13
2022-10-06T02:58:34.222Z,96699.06
2022-10-06T03:01:06.310Z,96884.38
2022-10-06T03:03:34.653Z,96867.53
2022-10-06T03:06:23.502Z,96868.03
2022-10-06T03:08:56.396Z,96862.34
2022-10-06T03:11:25.425Z,96863.69
2022-10-06T03:13:53.099Z,96668.03
2022-10-06T03:16:21.916Z,96874.31
2022-10-06T03:18:50.871Z,96715.28
2022-10-06T03:21:19.084Z,96666.44
2022-10-06T03:23:51.314Z,96608.28
2022-10-06T03:26:20.230Z,96867.97
2022-10-06T03:28:47.803Z,96830.16
2022-10-06T03:31:15.554Z,96847.44
2022-10-06T03:33:42.418Z,96867.53
2022-10-06T03:36:14.150Z,96870.25
2022-10-06T03:38:41.891Z,96712.88
2022-10-06T03:41:16.275Z,96866.88
2022-10-06T03:43:44.886Z,96871.47
2022-10-06T03:46:13.703Z,96779.06
2022-10-06T03:48:40.755Z,96764.00
2022-10-06T03:51:11.737Z,96747.44
2022-10-06T03:53:38.867Z,96895.34
2022-10-06T03:56:12.702Z,96865.97
2022-10-06T03:58:42.488Z,96704.50
2022-10-06T04:01:11.051Z,96727.03
2022-10-06T04:03:38.311Z,96575.63
2022-10-06T04:06:07.189Z,96865.63
2022-10-06T04:08:35.435Z,96862.25
2022-10-06T04:11:23.091Z,96794.94
2022-10-06T04:13:56.767Z,96887.00
2022-10-06T04:16:26.806Z,96858.25
2022-10-06T04:18:56.096Z,96699.94
2022-10-06T04:21:23.714Z,96776.22
2022-10-06T04:23:53.734Z,96865.19
2022-10-06T04:26:22.312Z,96871.28
2022-10-06T04:28:49.479Z,96888.59
2022-10-06T04:31:19.615Z,96715.13
2022-10-06T04:33:48.412Z,96729.56
2022-10-06T04:36:17.868Z,96851.41
2022-10-06T04:38:44.808Z,96731.75
2022-10-06T04:41:17.623Z,96715.03
2022-10-06T04:43:48.870Z,96900.03
2022-10-06T04:46:41.635Z,96866.25
2022-10-06T04:49:04.499Z,96796.75
2022-10-06T04:51:31.893Z,96581.59
2022-10-06T04:53:58.694Z,96868.81
2022-10-06T04:56:28.139Z,96753.75
2022-10-06T04:58:55.869Z,96595.34
2022-10-06T05:01:31.550Z,96882.66
2022-10-06T05:04:00.352Z,96891.53
2022-10-06T05:06:28.553Z,96775.75
2022-10-06T05:09:00.849Z,96922.47
2022-10-06T05:11:29.006Z,96739.97
2022-10-06T05:13:58.931Z,96871.88
2022-10-06T05:16:27.823Z,96884.16
2022-10-06T05:18:55.111Z,96877.81
2022-10-06T05:21:30.531Z,96914.66
2022-10-06T05:23:57.991Z,96684.34
2022-10-06T05:26:27.670Z,96868.91
2022-10-06T05:28:54.841Z,96740.53
2022-10-06T05:31:26.778Z,96662.97
2022-10-06T05:33:54.395Z,96881.09
2022-10-06T05:36:27.045Z,96729.75
2022-10-06T05:38:53.914Z,96757.25
2022-10-06T05:41:23.052Z,96889.63
2022-10-06T05:43:51.070Z,96891.81
2022-10-06T05:46:28.720Z,96922.25
2022-10-06T05:48:58.090Z,96900.53
2022-10-06T05:51:30.665Z,96857.59
2022-10-06T05:54:02.091Z,96895.47
2022-10-06T05:56:36.673Z,96876.19
2022-10-06T05:59:04.872Z,96889.25
2022-10-06T06:01:40.087Z,96782.91
2022-10-06T06:04:10.015Z,96913.72
2022-10-06T06:06:42.230Z,96913.78
2022-10-06T06:09:20.834Z,96928.31
2022-10-06T06:11:50.475Z,96906.38
2022-10-06T06:14:19.906Z,96835.50
2022-10-06T06:16:46.895Z,96918.59
2022-10-06T06:19:14.534Z,96780.28
2022-10-06T06:21:41.413Z,96760.28
2022-10-06T06:24:08.459Z,96908.28
2022-10-06T06:26:37.587Z,96932.59
2022-10-06T06:29:05.769Z,96808.22
2022-10-06T06:31:40.604Z,96917.34
2022-10-06T06:34:08.093Z,96934.28
2022-10-06T06:36:45.531Z,96857.88
2022-10-06T06:39:15.300Z,96864.28
2022-10-06T06:41:44.732Z,96906.91
2022-10-06T06:44:27.373Z,96613.28
2022-10-06T06:46:54.191Z,96825.31
2022-10-06T06:49:21.093Z,96782.25
2022-10-06T06:51:49.229Z,96825.38
2022-10-06T06:54:16.975Z,96770.53
2022-10-06T06:56:44.694Z,96896.03
2022-10-06T06:59:12.738Z,96737.94
2022-10-06T07:01:42.880Z,96893.44
2022-10-06T07:04:15.393Z,96719.88
2022-10-06T07:06:44.134Z,96723.91
2022-10-06T07:09:11.247Z,96835.72
2022-10-06T07:11:39.771Z,96887.44
2022-10-06T07:14:09.273Z,96883.38
2022-10-06T07:16:36.255Z,96890.22
2022-10-06T07:19:05.338Z,96833.94
2022-10-06T07:21:32.375Z,96639.50
2022-10-06T07:23:59.788Z,96899.25
2022-10-06T07:26:27.312Z,96887.38
2022-10-06T07:28:54.488Z,96763.56
2022-10-06T07:31:21.359Z,96885.06
2022-10-06T07:33:48.263Z,96901.13
2022-10-06T07:36:15.247Z,96702.16
2022-10-06T07:38:42.017Z,96692.56
2022-10-06T07:41:24.127Z,96734.22
2022-10-06T07:43:51.621Z,96877.44
2022-10-06T07:46:18.969Z,96881.03
2022-10-06T07:48:48.795Z,96733.47
2022-10-06T07:51:18.193Z,96869.75
2022-10-06T07:53:45.570Z,96695.03
2022-10-06T07:56:12.668Z,96769.66
2022-10-06T07:58:39.576Z,96754.34
2022-10-06T08:01:12.936Z,96870.56
2022-10-06T08:03:41.529Z,96867.84
2022-10-06T08:06:08.830Z,96866.31
2022-10-06T08:08:35.935Z,96694.13
2022-10-06T08:11:04.527Z,96870.50
2022-10-06T08:13:31.855Z,96768.66
2022-10-06T08:16:14.851Z,96884.44
2022-10-06T08:18:46.458Z,96857.03
2022-10-06T08:21:17.010Z,96846.28
2022-10-06T08:23:46.050Z,96893.06
2022-10-06T08:26:14.336Z,96715.84
2022-10-06T08:28:45.367Z,96627.50
2022-10-06T08:31:12.487Z,96821.38
2022-10-06T08:33:40.093Z,96641.13
2022-10-06T08:36:15.968Z,96821.53
2022-10-06T08:38:43.745Z,96834.19
2022-10-06T08:41:26.512Z,96833.53
2022-10-06T08:44:05.421Z,96697.91
2022-10-06T08:46:41.817Z,96657.72
2022-10-06T08:49:18.552Z,96745.94
2022-10-06T08:52:06.575Z,96841.66
2022-10-06T08:54:43.397Z,96717.34
2022-10-06T08:57:31.792Z,96836.59
2022-10-06T08:59:59.306Z,96765.94
2022-10-06T09:02:36.820Z,96741.16
2022-10-06T09:05:06.415Z,96838.91
2022-10-06T09:08:07.146Z,96820.41
2022-10-06T09:10:42.926Z,96828.16
2022-10-06T09:13:48.536Z,96817.28
2022-10-06T09:16:21.104Z,96684.72
2022-10-06T09:19:09.073Z,96693.47
2022-10-06T09:21:56.632Z,96815.19
2022-10-06T09:24:23.583Z,96810.06
2022-10-06T09:26:51.496Z,96780.06
2022-10-06T09:29:18.628Z,96630.91
2022-10-06T09:31:46.766Z,96680.59
2022-10-06T09:34:19.334Z,96797.25
2022-10-06T09:37:07.831Z,96586.84
2022-10-06T09:39:43.131Z,96661.47
2022-10-06T09:42:10.392Z,96789.41
2022-10-06T09:44:45.748Z,96789.25
2022-10-06T09:47:38.812Z,96746.06
2022-10-06T09:50:19.469Z,96790.69
2022-10-06T09:52:58.767Z,96794.22
2022-10-06T09:55:28.408Z,96670.03
2022-10-06T09:57:58.639Z,96785.09
2022-10-06T10:00:42.411Z,96548.94
2022-10-06T10:03:17.766Z,96273.13
2022-10-06T10:05:55.026Z,96782.97
2022-10-06T10:08:31.217Z,96545.72
2022-10-06T10:11:10.202Z,96769.56
2022-10-06T10:13:49.176Z,96776.44
2022-10-06T10:16:16.160Z,96639.13
2022-10-06T10:18:47.229Z,96802.59
2022-10-06T10:21:25.448Z,96488.81
2022-10-06T10:23:57.956Z,96543.94
2022-10-06T10:26:43.390Z,96592.16
2022-10-06T10:29:22.471Z,96752.66
2022-10-06T10:32:08.898Z,96745.66
2022-10-06T10:35:00.072Z,96745.63
2022-10-06T10:37:58.367Z,96740.06
2022-10-06T10:40:49.385Z,96706.38
2022-10-06T10:43:38.757Z,96738.28
2022-10-06T10:46:21.577Z,96730.97
2022-10-06T10:48:57.514Z,96723.72
2022-10-06T10:51:33.057Z,96724.72
2022-10-06T10:54:09.234Z,96628.31
2022-10-06T10:56:36.372Z,96578.69
2022-10-06T10:59:21.814Z,96724.72
2022-10-06T11:01:56.365Z,96607.69
2022-10-06T11:04:23.629Z,96714.34
2022-10-06T11:07:18.393Z,96696.19
2022-10-06T11:09:51.968Z,96698.41
2022-10-06T11:12:48.449Z,96614.59
2022-10-06T11:15:40.567Z,96521.63
2022-10-06T11:18:24.335Z,96544.28
2022-10-06T11:21:13.326Z,96704.50
2022-10-06T11:23:57.492Z,96676.50
2022-10-06T11:26:47.049Z,96687.31
2022-10-06T11:29:43.229Z,96669.81
2022-10-06T11:32:25.587Z,96666.31
2022-10-06T11:34:55.909Z,96660.41
2022-10-06T11:37:42.339Z,96657.81
2022-10-06T11:40:47.892Z,96658.25
2022-10-06T11:43:34.829Z,96547.19
2022-10-06T11:46:07.337Z,96653.13
2022-10-06T11:48:34.633Z,96548.13
2022-10-06T11:51:26.474Z,96652.44
2022-10-06T11:53:53.848Z,96638.34
2022-10-06T11:56:20.714Z,96636.66
2022-10-06T11:58:56.771Z,96505.38
2022-10-06T12:01:35.264Z,96630.28
2022-10-06T12:04:18.528Z,96542.78
2022-10-06T12:06:54.258Z,96604.97
2022-10-06T12:09:24.211Z,96621.88
2022-10-06T12:11:52.768Z,96629.00
2022-10-06T12:17:53.487Z,96615.28
2022-10-06T12:20:48.781Z,96617.25
2022-10-06T12:23:43.855Z,96610.22
2022-10-06T12:26:17.191Z,96605.03
2022-10-06T12:28:58.907Z,96604.66
2022-10-06T12:31:31.742Z,96604.03
2022-10-06T12:34:00.268Z,96420.19
2022-10-06T12:36:30.849Z,96318.38
2022-10-06T12:39:01.372Z,96597.63
2022-10-06T12:41:56.391Z,96587.78
2022-10-06T12:44:49.375Z,96313.56
2022-10-06T12:47:28.760Z,96372.22
2022-10-06T12:50:03.674Z,96374.94
2022-10-06T12:52:39.967Z,96472.16
2022-10-06T12:55:17.930Z,96584.72
2022-10-06T12:57:50.262Z,96584.94
2022-10-06T13:00:34.886Z,96475.72
2022-10-06T13:03:02.901Z,96587.56
2022-10-06T13:05:30.542Z,96574.31
2022-10-06T13:08:06.073Z,96577.78
2022-10-06T13:10:33.915Z,96317.63
2022-10-06T13:13:01.824Z,96580.34
2022-10-06T13:15:37.494Z,96282.06
2022-10-06T13:18:19.875Z,96553.41
2022-10-06T13:20:58.051Z,96548.16
2022-10-06T13:23:37.089Z,96038.19
2022-10-06T13:26:23.699Z,96555.91
2022-10-06T13:28:55.810Z,96182.63
2022-10-06T13:31:29.772Z,96111.88
2022-10-06T13:34:17.576Z,96146.53
2022-10-06T13:36:50.498Z,96507.03
2022-10-06T13:39:27.463Z,96038.59
2022-10-06T13:42:09.870Z,96541.19
2022-10-06T13:44:39.078Z,96443.44
2022-10-06T13:47:18.175Z,96345.84
2022-10-06T13:49:56.842Z,96539.97
2022-10-06T13:52:45.674Z,96548.78
2022-10-06T13:55:25.670Z,96548.25
2022-10-06T13:58:09.396Z,96384.91
2022-10-06T14:01:00.141Z,96408.16
2022-10-06T14:03:30.387Z,96549.25
2022-10-06T14:06:19.580Z,96312.03
2022-10-06T14:08:54.329Z,96249.22
2022-10-06T14:11:30.906Z,96581.13
2022-10-06T14:14:07.179Z,96253.50
2022-10-06T14:16:38.933Z,96402.69
2022-10-06T14:19:06.414Z,96432.47
2022-10-06T14:21:36.374Z,96544.28
2022-10-06T14:24:19.452Z,96555.06
2022-10-06T14:26:49.374Z,96457.53
2022-10-06T14:29:19.453Z,96006.44
2022-10-06T14:31:55.870Z,96327.56
2022-10-06T14:34:26.070Z,96292.75
2022-10-06T14:36:53.048Z,96117.81
2022-10-06T14:39:20.773Z,96597.72
2022-10-06T14:41:48.075Z,95987.50
2022-10-06T14:44:17.419Z,96572.84
2022-10-06T14:46:52.384Z,96238.38
2022-10-06T14:49:25.741Z,96143.63
2022-10-06T14:51:52.938Z,96281.31
2022-10-06T14:54:20.214Z,96410.41
2022-10-06T14:56:48.755Z,96604.47
2022-10-06T14:59:17.654Z,96585.47
2022-10-06T15:01:45.582Z,96351.19
2022-10-06T15:04:15.178Z,96397.19
2022-10-06T15:06:42.779Z,96302.25
2022-10-06T15:09:10.330Z,96438.56
2022-10-06T15:11:37.693Z,96406.88
2022-10-06T15:14:13.340Z,96421.03
2022-10-06T15:16:40.436Z,95945.84
2022-10-06T15:19:07.424Z,96457.28
2022-10-06T15:21:34.574Z,96317.16
2022-10-06T15:24:04.190Z,96575.69
2022-10-06T15:26:31.835Z,96439.28
2022-10-06T15:28:59.148Z,96387.88
2022-10-06T15:31:27.057Z,96294.28
2022-10-06T15:33:55.011Z,96572.63
2022-10-06T15:36:24.332Z,96375.13
2022-10-06T15:38:52.457Z,96591.72
2022-10-06T15:41:20.092Z,96392.19
2022-10-06T15:43:48.352Z,96501.44
2022-10-06T15:46:15.547Z,96584.47
2022-10-06T15:48:42.450Z,96607.69
2022-10-06T15:51:10.511Z,96622.91
2022-10-06T15:53:37.392Z,96553.00
2022-10-06T15:56:04.460Z,96465.03
2022-10-06T15:58:31.433Z,96515.94
2022-10-06T16:00:58.336Z,96439.44
2022-10-06T16:03:25.100Z,96432.63
2022-10-06T16:05:52.338Z,96401.88
2022-10-06T16:08:19.324Z,96611.56
2022-10-06T16:10:50.178Z,96618.25
2022-10-06T16:13:17.169Z,96414.06
2022-10-06T16:15:44.161Z,96407.75
2022-10-06T16:18:11.028Z,96406.34
2022-10-06T16:20:37.907Z,96444.28
2022-10-06T16:23:04.899Z,96582.75
2022-10-06T16:25:31.838Z,96608.97
2022-10-06T16:27:58.925Z,96466.47
2022-10-06T16:30:25.969Z,96541.63
2022-10-06T16:32:52.672Z,96412.97
2022-10-06T16:35:19.687Z,96542.69
2022-10-06T16:37:46.752Z,96620.38
2022-10-06T16:40:13.623Z,96669.59
2022-10-06T16:42:41.048Z,96652.50
2022-10-06T16:45:08.635Z,96565.91
2022-10-06T16:47:35.542Z,96547.06
2022-10-06T16:50:02.785Z,96687.34
2022-10-06T16:52:30.168Z,96417.84
2022-10-06T16:54:57.144Z,96479.19
2022-10-06T16:57:24.178Z,96625.06
2022-10-06T16:59:51.371Z,96488.72
2022-10-06T17:02:18.436Z,96638.31
2022-10-06T17:04:45.422Z,96505.78
2022-10-06T17:07:12.467Z,96387.34
2022-10-06T17:09:46.924Z,96488.19
2022-10-06T17:12:23.387Z,96641.81
2022-10-06T17:14:50.500Z,96669.94
2022-10-06T17:17:17.715Z,96518.06
2022-10-06T17:19:45.071Z,96601.75
2022-10-06T17:22:12.009Z,96455.84
2022-10-06T17:24:38.931Z,96507.81
2022-10-06T17:27:06.273Z,96661.50
2022-10-06T17:29:36.191Z,96667.94
2022-10-06T17:32:03.243Z,96521.16
2022-10-06T17:34:32.758Z,96683.84
2022-10-06T17:37:01.894Z,96660.81
2022-10-06T17:39:28.736Z,96645.09
2022-10-06T17:41:56.107Z,96657.44
2022-10-06T17:44:24.552Z,96670.06
2022-10-06T17:46:54.131Z,96673.91
2022-10-06T17:49:23.060Z,96661.25
2022-10-06T17:51:51.899Z,96614.31
2022-10-06T17:54:22.022Z,96551.78
2022-10-06T17:56:51.910Z,96673.63
2022-10-06T17:59:21.815Z,96534.44
2022-10-06T18:01:49.409Z,96680.97
2022-10-06T18:04:16.411Z,96507.94
2022-10-06T18:06:45.337Z,96664.69
2022-10-06T18:09:13.025Z,96695.22
2022-10-06T18:11:42.218Z,96691.19
2022-10-06T18:14:12.377Z,96689.03
2022-10-06T18:16:47.673Z,96688.91
2022-10-06T18:19:19.252Z,96522.09
2022-10-06T18:21:47.789Z,96588.22
2022-10-06T18:24:20.862Z,96716.16
2022-10-06T18:26:53.020Z,96509.53
2022-10-06T18:29:22.729Z,96665.41
2022-10-06T18:31:50.829Z,96503.94
2022-10-06T18:36:10.957Z,96538.38
2022-10-06T18:37:04.774Z,96656.13
2022-10-06T18:39:32.063Z,96508.56
2022-10-06T18:41:59.338Z,96702.72
2022-10-06T18:44:26.412Z,96605.59
2022-10-06T18:46:53.531Z,96722.38
2022-10-06T18:49:22.535Z,96609.47
2022-10-06T18:51:58.470Z,96706.44
2022-10-06T18:54:27.629Z,96411.34
2022-10-06T18:56:55.318Z,96610.59
2022-10-06T18:59:27.669Z,96709.59
2022-10-06T19:01:56.308Z,96714.09
2022-10-06T19:04:24.012Z,96487.50
2022-10-06T19:06:55.571Z,96513.38
2022-10-06T19:09:25.692Z,96766.34
2022-10-06T19:11:55.423Z,96698.34
2022-10-06T19:14:34.248Z,96460.13
2022-10-06T19:17:07.567Z,96436.81
2022-10-06T19:19:34.528Z,96544.31
2022-10-06T19:22:03.486Z,96724.38
2022-10-06T19:24:35.728Z,96642.94
2022-10-06T19:27:08.183Z,96384.69
2022-10-06T19:29:35.569Z,96441.97
2022-10-06T19:32:03.913Z,96500.59
2022-10-06T19:34:34.219Z,96708.56
2022-10-06T19:37:01.257Z,96614.00
2022-10-06T19:39:30.618Z,96371.38
2022-10-06T19:41:58.847Z,96003.38
2022-10-06T19:44:26.634Z,96230.38
2022-10-06T19:46:54.210Z,96751.25
2022-10-06T19:49:22.742Z,96225.13
2022-10-06T19:51:50.487Z,96192.03
2022-10-06T19:54:19.389Z,96136.72
2022-10-06T19:56:47.502Z,96449.13
2022-10-06T19:59:19.609Z,96480.25
2022-10-06T20:01:46.722Z,96580.78
2022-10-06T20:04:16.548Z,96485.03
2022-10-06T20:06:46.413Z,96386.59
2022-10-06T20:09:18.590Z,96607.59
2022-10-06T20:11:47.234Z,96767.63
2022-10-06T20:14:20.603Z,96575.94
2022-10-06T20:16:51.749Z,96629.88
2022-10-06T20:19:19.888Z,96617.88
2022-10-06T20:21:48.308Z,96544.00
2022-10-06T20:24:20.713Z,96693.81
2022-10-06T20:26:47.552Z,96597.31
2022-10-06T20:29:19.634Z,96638.66
2022-10-06T20:31:52.229Z,96745.44
2022-10-06T20:34:21.602Z,96597.09
2022-10-06T20:36:53.201Z,96559.13
2022-10-06T20:39:22.754Z,96619.59
2022-10-06T20:41:49.696Z,96602.94
2022-10-06T20:44:16.529Z,96724.84
2022-10-06T20:46:43.769Z,96481.03
2022-10-06T20:49:12.798Z,96597.03
2022-10-06T20:51:40.997Z,96783.28
2022-10-06T20:54:08.273Z,96608.66
2022-10-06T20:56:35.529Z,96758.75
2022-10-06T20:59:03.434Z,96569.53
2022-10-06T21:01:30.707Z,96549.69
2022-10-06T21:03:57.623Z,96598.66
2022-10-06T21:06:24.567Z,96745.28
2022-10-06T21:08:52.132Z,96504.66
2022-10-06T21:11:22.263Z,96691.53
2022-10-06T21:13:50.154Z,96757.22
2022-10-06T21:16:21.459Z,96480.38
2022-10-06T21:18:48.531Z,96757.72
2022-10-06T21:21:16.085Z,96761.97
2022-10-06T21:23:45.753Z,96701.84
2022-10-06T21:26:15.832Z,96800.06
2022-10-06T21:28:42.705Z,96598.22
2022-10-06T21:31:18.753Z,96806.44
2022-10-06T21:33:46.471Z,96638.59
2022-10-06T21:36:20.594Z,96126.91
2022-10-06T21:38:50.373Z,96705.41
2022-10-06T21:41:20.652Z,96644.13
2022-10-06T21:43:47.793Z,96682.47
2022-10-06T21:46:27.983Z,96721.09
2022-10-06T21:48:57.114Z,96558.81
2022-10-06T21:51:25.796Z,96778.84
2022-10-06T21:53:53.364Z,96769.06
2022-10-06T21:56:20.431Z,96766.84
2022-10-06T21:58:51.740Z,96599.66
2022-10-06T22:01:29.025Z,96815.56
2022-10-06T22:03:57.850Z,96769.47
2022-10-06T22:06:26.923Z,96592.06
2022-10-06T22:09:00.103Z,96587.25
2022-10-06T22:11:29.556Z,96780.06
2022-10-06T22:13:59.426Z,96777.25
2022-10-06T22:16:28.805Z,96774.81
2022-10-06T22:18:56.075Z,96682.75
2022-10-06T22:21:24.186Z,96516.03
2022-10-06T22:23:59.099Z,96747.41
2022-10-06T22:26:26.976Z,96581.41
2022-10-06T22:28:56.293Z,96645.97
2022-10-06T22:31:26.284Z,96612.72
2022-10-06T22:33:56.021Z,96565.47
2022-10-06T22:36:23.647Z,96774.09
2022-10-06T22:38:50.903Z,96593.75
2022-10-06T22:41:19.196Z,96558.59
2022-10-06T22:43:46.024Z,96753.56
2022-10-06T22:46:13.874Z,96754.81
2022-10-06T22:48:41.194Z,96480.06
2022-10-06T22:51:08.389Z,96605.72
2022-10-06T22:53:35.892Z,96755.47
2022-10-06T22:56:03.349Z,96567.38
2022-10-06T22:58:30.173Z,96588.03
2022-10-06T23:00:57.601Z,96617.38
2022-10-06T23:03:24.541Z,96760.06
2022-10-06T23:06:00.307Z,96756.34
2022-10-06T23:08:32.652Z,96545.31
2022-10-06T23:11:10.830Z,96765.63
2022-10-06T23:13:37.637Z,96763.81
2022-10-06T23:16:15.948Z,96621.91
2022-10-06T23:18:44.409Z,96765.31
2022-10-06T23:21:14.938Z,96635.78
2022-10-06T23:23:41.995Z,96640.38
2022-10-06T23:26:14.014Z,96685.66
2022-10-06T23:28:41.332Z,96791.19
2022-10-06T23:31:10.336Z,96782.38
2022-10-06T23:33:37.772Z,96615.34
2022-10-06T23:36:07.856Z,96622.69
2022-10-06T23:38:36.314Z,96632.97
2022-10-06T23:41:03.385Z,96598.56
2022-10-06T23:43:30.227Z,96645.28
2022-10-06T23:45:57.432Z,96634.47
2022-10-06T23:48:24.825Z,96539.38
2022-10-06T23:51:08.031Z,96775.28
2022-10-06T23:53:35.869Z,96773.06
2022-10-06T23:56:04.033Z,96709.47
2022-10-06T23:58:31.710Z,96799.56
